Mount Philo, Vermont
Current Conditions -  °F | °C
As of 10:54 PM on Monday 22 Dec 2014 (Local Time) from KBTV Reporting Station
Haze Haze  
Wind Chill: 26°   Ceiling: 4800
Heat Index: 26°   Visibility: 5mi
Dew Point: 21°   Wind: 0mph
Humidity: 81%   Direction: NA
Pressure: 30.27"   Gusts: NA
Location:  44.2438°N, 73.1915°W
Report Text: KBTV 230354Z 00000KT 5SM BR OVC048 M03/M06 A3027 RMK AO2 SLP255 T10331061
Loading
Personal Weather Stations






























Interactive Weather Map New forecast layout! Learn more

10-Day Weather Forecast

Advertisements
Track Severe Weather on mobile